Time;durP1;ratioP1;P1;durP2;ratioP2;P2;SDS_P1;SDS_P2;PMS_P1;PMS_P2;Temp;Humidity;BMP_temperature;BMP_pressure;BME280_temperature;BME280_humidity;BME280_pressure;Samples;Min_cycle;Max_cycle;Signal;HPM_P1;HPM_P2
2023/07/26 00:02:00;;;;;;;28.03;1.57;;;;;;;26.01;54.88;98596.91;7316558;19;128767;-33
2023/07/26 00:04:26;;;;;;;47.47;2.87;;;;;;;26.04;54.80;98588.66;7315245;19;129373;-32
2023/07/26 00:06:51;;;;;;;26.80;1.60;;;;;;;26.07;54.65;98594.38;7316157;19;129640;-33
2023/07/26 00:09:16;;;;;;;36.63;2.00;;;;;;;26.09;55.32;98597.63;7313607;19;130336;-32
2023/07/26 00:11:41;;;;;;;40.07;2.37;;;;;;;26.10;55.25;98599.25;7315533;19;128938;-33
2023/07/26 00:14:07;;;;;;;34.10;1.87;;;;;;;26.11;55.17;98587.72;7313047;19;130420;-35
2023/07/26 00:16:33;;;;;;;61.00;3.53;;;;;;;26.10;54.89;98578.16;7314442;19;130093;-36
2023/07/26 00:18:58;;;;;;;30.27;1.67;;;;;;;26.10;54.79;98583.44;7315532;19;130764;-36
2023/07/26 00:21:23;;;;;;;22.57;1.33;;;;;;;25.68;51.66;98583.50;7316045;19;130504;-30
2023/07/26 00:23:49;;;;;;;47.60;2.73;;;;;;;25.46;51.37;98595.88;7312830;19;129377;-32
2023/07/26 00:26:14;;;;;;;39.90;2.23;;;;;;;25.39;50.94;98588.91;7314905;19;131026;-38
2023/07/26 00:28:40;;;;;;;61.37;3.60;;;;;;;25.53;54.27;98585.41;7312534;19;129286;-35
2023/07/26 00:31:05;;;;;;;27.97;1.60;;;;;;;25.78;54.51;98586.63;7314823;19;129225;-34
2023/07/26 00:33:30;;;;;;;24.73;1.40;;;;;;;25.88;54.46;98589.75;7313400;19;130174;-34
2023/07/26 00:35:56;;;;;;;52.83;2.90;;;;;;;25.94;55.03;98585.50;7312550;19;129537;-31
2023/07/26 00:38:21;;;;;;;32.60;1.83;;;;;;;25.97;54.60;98591.22;7314592;19;128877;-37
2023/07/26 00:40:47;;;;;;;57.77;3.37;;;;;;;25.98;55.06;98590.19;7314576;19;128999;-33
2023/07/26 00:43:12;;;;;;;29.93;1.70;;;;;;;25.99;54.79;98594.47;7312890;19;129062;-33
2023/07/26 00:45:39;;;;;;;43.90;2.30;;;;;;;26.02;55.09;98588.84;7314374;19;130355;-32
2023/07/26 00:48:06;;;;;;;56.05;3.05;;;;;;;26.05;55.03;98590.31;7312744;19;128874;-34
2023/07/26 00:50:32;;;;;;;27.75;1.55;;;;;;;26.06;54.97;98587.47;7314623;19;129141;-36
2023/07/26 00:52:57;;;;;;;79.63;4.43;;;;;;;26.08;55.19;98589.91;7312636;19;129358;-30
2023/07/26 00:55:24;;;;;;;40.87;2.37;;;;;;;26.09;55.32;98600.25;7314571;19;130282;-37
2023/07/26 00:57:50;;;;;;;31.17;1.83;;;;;;;26.01;54.69;98579.34;7313893;19;129482;-37
2023/07/26 01:00:16;;;;;;;24.47;1.43;;;;;;;25.74;52.44;98598.53;7314287;19;128739;-32
2023/07/26 01:02:42;;;;;;;74.13;4.35;;;;;;;25.46;50.58;98600.31;7312968;19;130139;-35
2023/07/26 01:05:08;;;;;;;75.67;4.33;;;;;;;25.47;50.75;98599.31;7314541;19;130302;-36
2023/07/26 01:08:00;;;;;;;29.83;1.63;;;;;;;25.57;54.83;98610.31;7315121;19;130062;-34
2023/07/26 01:10:38;;;;;;;19.35;1.25;;;;;;;25.82;54.28;98606.28;7314162;19;128816;-34
2023/07/26 01:13:20;;;;;;;41.17;2.42;;;;;;;25.79;54.34;98596.16;7311919;19;130048;-35
2023/07/26 01:15:48;;;;;;;26.17;1.50;;;;;;;25.95;55.03;98611.66;7313568;19;129667;-31
2023/07/26 01:18:16;;;;;;;68.55;4.10;;;;;;;25.98;54.37;98608.63;7311182;19;130926;-32
2023/07/26 01:20:41;;;;;;;48.60;2.72;;;;;;;25.98;54.68;98608.63;7313541;19;132619;-31
2023/07/26 01:23:07;;;;;;;37.87;2.27;;;;;;;26.01;55.16;98616.22;7313118;19;130013;-36
2023/07/26 01:25:34;;;;;;;23.08;1.42;;;;;;;26.01;54.90;98613.59;7313812;19;131477;-36
2023/07/26 01:27:59;;;;;;;23.25;1.27;;;;;;;25.93;54.94;98597.91;7313174;19;130578;-33
2023/07/26 01:30:29;;;;;;;74.97;4.30;;;;;;;25.94;55.34;98607.41;7311691;19;129338;-35
2023/07/26 01:32:57;;;;;;;37.38;1.98;;;;;;;25.94;55.10;98594.25;7313408;19;130577;-39
2023/07/26 01:35:23;;;;;;;52.75;3.13;;;;;;;26.06;54.65;98624.38;7312272;19;129356;-35
2023/07/26 01:37:50;;;;;;;31.30;1.63;;;;;;;26.06;55.23;98629.63;7313429;19;129232;-35
2023/07/26 01:40:17;;;;;;;44.75;2.53;;;;;;;25.55;51.14;98633.41;7312516;19;128850;-36
2023/07/26 01:42:42;;;;;;;43.17;2.30;;;;;;;25.41;50.73;98627.19;7313037;19;129633;-35
2023/07/26 01:45:09;;;;;;;23.07;1.33;;;;;;;25.39;50.36;98625.75;7312959;19;129175;-33
2023/07/26 01:47:35;;;;;;;38.88;2.28;;;;;;;25.64;54.03;98624.38;7312056;19;129357;-33
2023/07/26 01:50:00;;;;;;;40.87;2.13;;;;;;;25.82;54.03;98642.38;7311196;19;128998;-34
2023/07/26 01:52:26;;;;;;;59.63;3.50;;;;;;;25.87;55.00;98630.25;7312652;19;131303;-37
2023/07/26 01:54:52;;;;;;;27.08;1.45;;;;;;;25.91;54.73;98631.50;7312560;19;129500;-34
2023/07/26 01:57:17;;;;;;;28.33;1.63;;;;;;;25.94;54.41;98636.38;7310788;19;130757;-38
2023/07/26 01:59:42;;;;;;;37.20;2.07;;;;;;;25.96;54.86;98637.00;7311961;19;129933;-34
2023/07/26 02:02:08;;;;;;;39.63;2.13;;;;;;;25.98;54.54;98637.63;7313338;19;129550;-38
2023/07/26 02:04:33;;;;;;;50.23;3.07;;;;;;;25.99;54.54;98655.06;7312108;19;129218;-42
2023/07/26 02:06:58;;;;;;;37.67;2.30;;;;;;;26.00;54.92;98648.78;7312921;19;129967;-33
2023/07/26 02:09:24;;;;;;;42.67;2.40;;;;;;;26.03;55.49;98645.00;7310004;19;131170;-33
2023/07/26 02:11:49;;;;;;;36.30;1.97;;;;;;;26.01;54.64;98653.09;7310423;19;130109;-30
2023/07/26 02:14:16;;;;;;;28.30;1.60;;;;;;;25.95;55.46;98643.28;7310000;19;129097;-32
2023/07/26 02:16:41;;;;;;;59.55;3.60;;;;;;;26.05;55.66;98675.41;7312102;19;129154;-34
2023/07/26 02:19:07;;;;;;;67.47;3.50;;;;;;;25.62;51.44;98666.69;7311993;19;129507;-33
2023/07/26 02:21:32;;;;;;;29.20;1.67;;;;;;;25.43;51.29;98669.13;7312958;19;129982;-38
2023/07/26 02:23:58;;;;;;;35.33;1.80;;;;;;;25.38;50.57;98677.59;7309838;19;130720;-36
2023/07/26 02:26:23;;;;;;;34.10;1.90;;;;;;;25.43;54.76;98659.41;7312054;19;129188;-33
2023/07/26 02:28:49;;;;;;;75.27;4.30;;;;;;;25.77;54.68;98687.69;7310430;19;131684;-34
2023/07/26 02:31:14;;;;;;;19.97;1.20;;;;;;;25.87;54.15;98692.63;7312268;19;130434;-38
2023/07/26 02:33:40;;;;;;;60.73;3.63;;;;;;;25.91;54.56;98699.16;7308502;19;129564;-42
2023/07/26 02:36:05;;;;;;;32.60;1.83;;;;;;;25.93;54.71;98697.16;7312052;19;129070;-32
2023/07/26 02:38:30;;;;;;;29.47;1.67;;;;;;;25.95;55.22;98706.47;7310079;19;131277;-40
2023/07/26 02:40:56;;;;;;;44.30;2.63;;;;;;;25.97;54.89;98701.84;7310406;19;129240;-34
2023/07/26 02:43:21;;;;;;;27.97;1.63;;;;;;;26.00;55.05;98698.81;7310664;19;131355;-32
2023/07/26 02:45:47;;;;;;;64.20;3.63;;;;;;;25.95;55.17;98698.56;7310669;19;129014;-40
2023/07/26 02:48:12;;;;;;;38.63;2.20;;;;;;;26.01;55.30;98700.50;7311015;19;129121;-35
2023/07/26 02:50:37;;;;;;;22.40;1.30;;;;;;;26.01;55.26;98697.88;7311550;19;129049;-34
2023/07/26 02:53:03;;;;;;;40.23;2.27;;;;;;;26.03;54.31;98697.69;7307735;19;130213;-36
2023/07/26 02:55:28;;;;;;;39.33;2.13;;;;;;;26.04;55.00;98709.84;7311667;19;129437;-35
2023/07/26 02:57:54;;;;;;;59.40;3.53;;;;;;;25.84;52.02;98704.38;7310103;19;129007;-34
2023/07/26 03:00:19;;;;;;;28.83;1.47;;;;;;;25.50;51.38;98707.66;7310997;19;129122;-34
2023/07/26 03:02:44;;;;;;;29.60;1.70;;;;;;;25.39;51.13;98717.84;7310343;19;129544;-30
2023/07/26 03:05:10;;;;;;;35.70;1.90;;;;;;;25.33;51.55;98715.94;7310378;19;129433;-34
2023/07/26 03:07:35;;;;;;;24.10;1.40;;;;;;;25.65;54.49;98718.97;7311287;19;129010;-35
2023/07/26 03:10:00;;;;;;;67.60;3.97;;;;;;;25.80;54.11;98713.63;7307337;19;130102;-32
2023/07/26 03:12:26;;;;;;;30.57;1.70;;;;;;;25.88;54.64;98713.53;7309782;19;131542;-32
2023/07/26 03:14:51;;;;;;;111.30;6.03;;;;;;;25.91;54.35;98721.06;7308093;19;130608;-40
2023/07/26 03:17:17;;;;;;;16.07;1.13;;;;;;;25.92;54.88;98722.66;7310048;19;128943;-36
2023/07/26 03:19:42;;;;;;;28.53;1.67;;;;;;;25.93;55.20;98734.03;7311257;19;129481;-35
2023/07/26 03:22:07;;;;;;;63.07;3.60;;;;;;;25.96;54.88;98733.66;7313016;19;130341;-39
2023/07/26 03:24:32;;;;;;;16.50;1.00;;;;;;;25.98;54.49;98731.66;7317821;19;129380;-32
2023/07/26 03:26:58;;;;;;;58.40;3.47;;;;;;;25.90;54.95;98723.88;7315445;19;129057;-41
2023/07/26 03:29:23;;;;;;;24.63;1.50;;;;;;;25.98;55.22;98740.34;7315517;19;130427;-41
2023/07/26 03:31:49;;;;;;;28.00;1.63;;;;;;;25.99;55.17;98739.34;7317647;19;130360;-35
2023/07/26 03:34:14;;;;;;;37.73;2.27;;;;;;;26.00;55.10;98740.97;7315002;19;128830;-36
2023/07/26 03:36:40;;;;;;;55.47;3.27;;;;;;;25.78;52.47;98736.72;7317142;19;129692;-29
2023/07/26 03:39:05;;;;;;;64.90;3.83;;;;;;;25.41;51.16;98744.81;7316046;19;129104;-33
2023/07/26 03:41:31;;;;;;;41.83;2.30;;;;;;;25.30;51.39;98737.38;7317852;19;130653;-31
2023/07/26 03:43:56;;;;;;;30.23;1.70;;;;;;;25.31;52.58;98750.34;7314459;19;129373;-37
2023/07/26 03:46:22;;;;;;;32.10;1.90;;;;;;;25.64;54.73;98745.47;7317644;19;129174;-32
2023/07/26 03:48:47;;;;;;;25.97;1.50;;;;;;;25.78;54.26;98743.81;7316424;19;129488;-34
2023/07/26 03:51:12;;;;;;;70.53;4.10;;;;;;;25.84;54.69;98749.13;7316571;19;130481;-40
2023/07/26 03:53:38;;;;;;;24.53;1.47;;;;;;;25.88;55.17;98755.66;7315280;19;128974;-33
2023/07/26 03:56:03;;;;;;;28.00;1.53;;;;;;;25.81;55.13;98746.88;7317003;19;129780;-34
2023/07/26 03:58:28;;;;;;;35.90;1.90;;;;;;;25.93;54.52;98763.81;7314694;19;129295;-39
2023/07/26 04:00:54;;;;;;;35.63;1.93;;;;;;;25.96;55.42;98770.53;7317181;19;130392;-34
2023/07/26 04:03:19;;;;;;;65.87;4.07;;;;;;;25.94;55.08;98762.81;7314494;19;129068;-31
2023/07/26 04:05:44;;;;;;;22.13;1.37;;;;;;;25.97;55.10;98772.97;7316721;19;129599;-40
2023/07/26 04:08:10;;;;;;;33.43;1.97;;;;;;;25.96;54.66;98776.63;7314479;19;129738;-37
2023/07/26 04:10:36;;;;;;;60.30;3.17;;;;;;;25.98;55.31;98787.75;7316945;19;129295;-34
2023/07/26 04:13:01;;;;;;;22.52;1.27;;;;;;;25.98;55.46;98785.13;7315399;19;129201;-38
2023/07/26 04:15:28;;;;;;;59.73;3.53;;;;;;;25.97;55.67;98788.78;7315108;19;129086;-39
2023/07/26 04:17:54;;;;;;;40.58;2.25;;;;;;;25.45;51.16;98788.19;7313418;19;130974;-37
2023/07/26 04:20:19;;;;;;;53.63;3.03;;;;;;;25.37;51.05;98794.34;7315286;19;130406;-40
2023/07/26 04:22:44;;;;;;;26.50;1.53;;;;;;;25.26;50.92;98788.72;7314749;19;128921;-38
2023/07/26 04:25:10;;;;;;;24.37;1.40;;;;;;;25.55;54.60;98792.16;7315223;19;129574;-36
2023/07/26 04:27:35;;;;;;;53.27;3.00;;;;;;;25.75;54.58;98799.47;7313503;19;129974;-39
2023/07/26 04:30:02;;;;;;;29.03;1.63;;;;;;;25.80;54.73;98800.53;7313085;19;131125;-36
2023/07/26 04:32:27;;;;;;;;;;;;;;;25.95;54.85;98805.78;7313909;19;128863;-40
2023/07/26 04:34:52;;;;;;;25.77;1.43;;;;;;;25.88;54.83;98800.44;7313349;19;129076;-39
2023/07/26 04:37:18;;;;;;;46.53;2.53;;;;;;;25.81;55.04;98796.91;7313801;19;129469;-40
2023/07/26 04:39:45;;;;;;;23.37;1.43;;;;;;;25.92;54.86;98817.50;7314732;19;130549;-37
2023/07/26 04:42:11;;;;;;;29.08;1.58;;;;;;;25.87;55.40;98804.06;7314710;19;129523;-36
2023/07/26 04:44:36;;;;;;;55.30;3.27;;;;;;;25.92;55.30;98817.50;7313928;19;129376;-39
2023/07/26 04:47:01;;;;;;;41.90;2.37;;;;;;;25.84;55.19;98803.59;7314282;19;129558;-39
2023/07/26 04:49:27;;;;;;;42.50;2.60;;;;;;;25.94;55.60;98814.66;7311217;19;129867;-37
2023/07/26 04:51:52;;;;;;;22.47;1.33;;;;;;;25.92;55.66;98816.66;7314591;19;130614;-37
2023/07/26 04:54:17;;;;;;;30.43;1.63;;;;;;;25.92;55.21;98822.75;7312308;19;129468;-36
2023/07/26 04:56:43;;;;;;;49.40;2.87;;;;;;;25.42;51.17;98830.66;7313641;19;129347;-38
2023/07/26 04:59:08;;;;;;;10.97;0.67;;;;;;;25.36;51.14;98831.38;7313832;19;130520;-39
2023/07/26 05:01:33;;;;;;;65.50;3.90;;;;;;;25.21;50.81;98827.91;7313520;19;129626;-38
2023/07/26 05:03:59;;;;;;;48.20;2.57;;;;;;;25.45;54.40;98841.63;7312055;19;129572;-38
2023/07/26 05:06:24;;;;;;;49.30;2.67;;;;;;;25.68;54.14;98834.41;7314129;19;129046;-39
2023/07/26 05:08:49;;;;;;;17.40;1.20;;;;;;;25.78;55.01;98834.16;7311790;19;129638;-37
2023/07/26 05:11:15;;;;;;;34.47;1.90;;;;;;;25.82;54.75;98834.59;7313719;19;128955;-33
2023/07/26 05:13:41;;;;;;;75.60;4.30;;;;;;;25.87;55.29;98838.28;7310699;19;129379;-38
2023/07/26 05:16:06;;;;;;;29.80;1.73;;;;;;;25.89;54.51;98838.09;7314442;19;131115;-32
2023/07/26 05:18:31;;;;;;;23.90;1.37;;;;;;;25.90;54.63;98845.81;7312809;19;130268;-32
2023/07/26 05:20:57;;;;;;;14.60;0.90;;;;;;;25.88;54.67;98853.13;7312672;19;129234;-35
2023/07/26 05:23:22;;;;;;;62.67;3.33;;;;;;;25.82;55.15;98843.31;7311478;19;129647;-34
2023/07/26 05:25:47;;;;;;;59.50;3.50;;;;;;;25.91;54.84;98855.38;7313103;19;129700;-33
2023/07/26 05:28:13;;;;;;;27.20;1.63;;;;;;;25.91;55.13;98863.28;7313007;19;129246;-37
2023/07/26 05:30:39;;;;;;;30.23;1.73;;;;;;;25.90;55.65;98866.91;7312965;19;129385;-35
2023/07/26 05:33:06;;;;;;;38.20;2.15;;;;;;;25.87;54.82;98867.28;7312701;19;130053;-33
2023/07/26 05:35:31;;;;;;;26.52;1.55;;;;;;;25.42;51.10;98854.34;7311958;19;131317;-32
2023/07/26 05:37:57;;;;;;;56.50;3.40;;;;;;;25.33;51.58;98869.38;7312233;19;130680;-34
2023/07/26 05:40:22;;;;;;;35.00;1.90;;;;;;;25.22;50.93;98877.69;7313307;19;129205;-34
2023/07/26 05:42:47;;;;;;;53.83;3.07;;;;;;;25.38;53.96;98874.13;7312264;19;130060;-38
2023/07/26 05:45:13;;;;;;;51.33;2.93;;;;;;;25.65;54.46;98879.56;7310120;19;130203;-34
2023/07/26 05:47:38;;;;;;;21.87;1.20;;;;;;;25.73;54.64;98876.81;7311473;19;130000;-35
2023/07/26 05:50:06;;;;;;;55.33;3.00;;;;;;;25.82;54.64;98882.81;7310917;19;129284;-39
2023/07/26 05:52:31;;;;;;;31.45;1.75;;;;;;;25.87;55.16;98888.34;7312696;19;129214;-39
2023/07/26 05:54:57;;;;;;;37.23;2.37;;;;;;;25.89;55.27;98891.63;7312400;19;130080;-36
2023/07/26 05:57:22;;;;;;;27.77;1.50;;;;;;;25.88;54.79;98891.78;7311919;19;130612;-38
2023/07/26 05:59:48;;;;;;;49.90;2.70;;;;;;;25.90;55.42;98892.44;7312947;19;129860;-45
2023/07/26 06:02:13;;;;;;;12.83;0.77;;;;;;;25.91;54.72;98894.06;7312047;19;129575;-32
2023/07/26 06:04:39;;;;;;;31.43;1.70;;;;;;;25.89;55.23;98896.88;7313370;19;130443;-33
2023/07/26 06:07:04;;;;;;;106.97;6.37;;;;;;;25.90;54.85;98892.44;7311503;19;131148;-34
2023/07/26 06:09:29;;;;;;;42.00;2.23;;;;;;;25.90;54.92;98895.88;7312717;19;130146;-34
2023/07/26 06:11:55;;;;;;;40.57;2.47;;;;;;;25.90;54.72;98908.25;7313296;19;129467;-37
2023/07/26 06:14:21;;;;;;;13.77;0.87;;;;;;;25.50;52.33;98883.22;7310138;19;129589;-33
2023/07/26 06:16:47;;;;;;;26.40;1.48;;;;;;;25.30;51.06;98901.28;7313204;19;130343;-34
2023/07/26 06:19:12;;;;;;;66.87;3.67;;;;;;;25.11;50.98;98885.22;7311406;19;128979;-38
2023/07/26 06:21:38;;;;;;;14.97;1.03;;;;;;;25.29;53.71;98899.69;7313665;19;129788;-30
2023/07/26 06:24:03;;;;;;;54.80;3.27;;;;;;;25.60;54.73;98902.19;7309955;19;130010;-33
2023/07/26 06:26:29;;;;;;;11.93;0.80;;;;;;;25.74;54.75;98909.25;7313065;19;129673;-34
2023/07/26 06:28:54;;;;;;;44.60;2.40;;;;;;;25.79;54.69;98911.31;7311968;19;129474;-30
2023/07/26 06:31:19;;;;;;;25.53;1.37;;;;;;;25.82;54.65;98910.97;7312086;19;130460;-34
2023/07/26 06:33:45;;;;;;;31.67;1.83;;;;;;;25.84;54.58;98912.41;7309555;19;129968;-35
2023/07/26 06:36:10;;;;;;;74.77;4.20;;;;;;;25.86;55.13;98915.69;7311490;19;129942;-32
2023/07/26 06:38:35;;;;;;;30.87;1.83;;;;;;;25.77;55.17;98897.53;7312808;19;131037;-37
2023/07/26 06:41:01;;;;;;;24.33;1.37;;;;;;;25.88;55.31;98920.78;7312749;19;128971;-45
2023/07/26 06:43:27;;;;;;;24.70;1.53;;;;;;;25.88;55.17;98920.78;7310352;19;130890;-37
2023/07/26 06:45:52;;;;;;;40.43;2.23;;;;;;;25.88;54.97;98921.59;7311764;19;129904;-32
2023/07/26 06:48:18;;;;;;;72.63;4.13;;;;;;;25.87;55.37;98919.94;7310764;19;128943;-36
2023/07/26 06:50:44;;;;;;;21.53;1.27;;;;;;;25.87;55.50;98919.94;7310106;19;130642;-34
2023/07/26 06:53:09;;;;;;;54.17;3.20;;;;;;;25.59;51.91;98917.16;7309361;19;130182;-39
2023/07/26 06:55:36;;;;;;;43.90;2.33;;;;;;;25.30;51.98;98921.56;7311217;19;129863;-34
2023/07/26 06:58:01;;;;;;;24.60;1.42;;;;;;;25.22;50.73;98926.91;7318392;19;129821;-38
2023/07/26 07:00:27;;;;;;;42.53;2.57;;;;;;;25.30;54.63;98926.81;7317766;19;130443;-30
2023/07/26 07:03:00;;;;;;;39.77;2.13;;;;;;;25.62;54.57;98942.28;7316989;19;129074;-34
2023/07/26 07:05:29;;;;;;;68.82;3.92;;;;;;;25.63;54.58;98920.25;7317074;19;129994;-39
2023/07/26 07:07:55;;;;;;;46.22;2.45;;;;;;;25.69;54.80;98922.97;7317402;19;129110;-34
2023/07/26 07:10:22;;;;;;;63.97;3.77;;;;;;;25.81;54.97;98931.22;7314605;19;130472;-32
2023/07/26 07:12:47;;;;;;;39.95;2.30;;;;;;;25.84;55.11;98932.66;7315619;19;129134;-32
2023/07/26 07:15:13;;;;;;;76.37;4.47;;;;;;;25.78;55.02;98921.06;7315485;19;128907;-34
2023/07/26 07:17:38;;;;;;;39.60;2.30;;;;;;;25.87;55.57;98935.75;7318364;19;129995;-32
2023/07/26 07:20:06;;;;;;;59.90;3.63;;;;;;;25.89;55.41;98932.91;7314849;19;129027;-37
2023/07/26 07:22:32;;;;;;;52.53;3.08;;;;;;;25.88;54.75;98942.66;7314481;19;130654;-39
2023/07/26 07:24:58;;;;;;;23.17;1.33;;;;;;;25.89;55.49;98946.91;7317238;19;129596;-32
2023/07/26 07:27:23;;;;;;;29.63;1.70;;;;;;;25.90;55.42;98938.00;7317346;19;130021;-36
2023/07/26 07:29:49;;;;;;;20.27;1.23;;;;;;;25.92;55.66;98943.91;7315687;19;129275;-37
2023/07/26 07:32:14;;;;;;;26.70;1.43;;;;;;;25.54;51.57;98947.63;7316417;19;130771;-39
2023/07/26 07:34:39;;;;;;;46.57;2.53;;;;;;;25.30;50.69;98942.59;7315920;19;129898;-39
2023/07/26 07:37:05;;;;;;;55.47;3.33;;;;;;;25.22;51.10;98945.31;7316509;19;129414;-32
2023/07/26 07:39:31;;;;;;;32.60;1.73;;;;;;;25.37;54.09;98940.94;7316445;19;129065;-40
2023/07/26 07:41:57;;;;;;;44.47;2.72;;;;;;;25.63;54.26;98957.09;7315309;19;129689;-34
2023/07/26 07:44:22;;;;;;;86.00;4.83;;;;;;;25.73;54.29;98949.75;7313222;19;130743;-34
2023/07/26 07:46:47;;;;;;;27.40;1.63;;;;;;;25.78;54.78;98947.38;7316988;19;129188;-44
2023/07/26 07:49:13;;;;;;;20.57;1.23;;;;;;;25.79;54.85;98943.75;7315384;19;129056;-38
2023/07/26 07:51:38;;;;;;;51.47;3.03;;;;;;;25.82;55.45;98943.38;7315324;19;130200;-35
2023/07/26 07:54:04;;;;;;;81.10;4.90;;;;;;;25.85;55.19;98936.94;7315394;19;130691;-40
2023/07/26 07:56:29;;;;;;;35.93;2.00;;;;;;;25.77;54.98;98919.41;7317042;19;129955;-36
2023/07/26 07:58:55;;;;;;;29.07;1.70;;;;;;;25.89;55.32;98939.03;7315945;19;129340;-36
2023/07/26 08:01:20;;;;;;;42.23;2.30;;;;;;;25.80;54.93;98918.25;7315868;19;129095;-32
2023/07/26 08:03:45;;;;;;;33.33;1.90;;;;;;;25.89;54.92;98939.03;7314275;19;130930;-38
2023/07/26 08:06:12;;;;;;;48.53;2.93;;;;;;;25.80;55.60;98934.03;7315090;19;128940;-35
2023/07/26 08:08:39;;;;;;;38.38;2.22;;;;;;;25.89;55.47;98933.75;7313987;19;130109;-37
2023/07/26 08:11:04;;;;;;;45.30;2.47;;;;;;;25.45;51.91;98940.84;7315535;19;131485;-34
2023/07/26 08:13:29;;;;;;;35.30;2.00;;;;;;;25.26;51.18;98946.56;7312809;19;130412;-36
2023/07/26 08:15:58;;;;;;;28.30;1.63;;;;;;;25.27;51.15;98948.22;7316805;19;128965;-31
2023/07/26 08:18:23;;;;;;;39.35;2.45;;;;;;;25.44;54.47;98953.19;7312940;19;129559;-33
2023/07/26 08:20:48;;;;;;;35.03;2.00;;;;;;;25.66;54.89;98954.09;7315426;19;129233;-35
2023/07/26 08:23:14;;;;;;;24.93;1.50;;;;;;;25.72;54.97;98932.28;7314263;19;129349;-34
2023/07/26 08:25:40;;;;;;;39.50;2.33;;;;;;;25.79;54.41;98941.13;7314880;19;128708;-32
2023/07/26 08:28:05;;;;;;;20.33;1.23;;;;;;;25.81;55.33;98936.50;7315371;19;130071;-32
2023/07/26 08:30:31;;;;;;;63.30;3.50;;;;;;;25.83;54.90;98937.13;7312800;19;129396;-36
2023/07/26 08:32:56;;;;;;;69.00;4.03;;;;;;;25.84;55.01;98936.13;7314231;19;130604;-38
2023/07/26 08:35:22;;;;;;;31.73;1.80;;;;;;;25.86;55.00;98939.38;7314572;19;129293;-41
2023/07/26 08:37:48;;;;;;;41.27;2.77;;;;;;;25.88;55.47;98947.09;7313291;19;128950;-37
2023/07/26 08:40:13;;;;;;;49.37;2.67;;;;;;;25.77;55.16;98924.66;7314618;19;129417;-35
2023/07/26 08:42:39;;;;;;;20.90;1.33;;;;;;;25.87;54.94;98946.28;7314069;19;130800;-41
2023/07/26 08:45:06;;;;;;;27.63;1.50;;;;;;;25.87;55.05;98941.00;7314146;19;129090;-39
2023/07/26 08:47:32;;;;;;;;;;;;;;;25.97;55.15;98940.72;7312992;19;129403;-34
2023/07/26 08:49:58;;;;;;;82.47;4.95;;;;;;;25.45;51.62;98927.69;7311453;19;129060;-41
2023/07/26 08:52:24;;;;;;;31.53;1.77;;;;;;;25.29;51.46;98940.94;7314412;19;129443;-30
2023/07/26 08:54:50;;;;;;;24.40;1.33;;;;;;;25.27;50.67;98942.97;7312855;19;129228;-45
2023/07/26 08:57:18;;;;;;;34.27;2.00;;;;;;;25.22;53.91;98929.53;7314153;19;129899;-34
2023/07/26 08:59:44;;;;;;;43.05;2.25;;;;;;;25.57;54.40;98949.91;7314877;19;129047;-36
2023/07/26 09:02:13;;;;;;;56.77;3.40;;;;;;;25.68;54.44;98942.38;7313791;19;131095;-34
2023/07/26 09:04:39;;;;;;;70.22;4.15;;;;;;;25.74;54.40;98946.09;7313994;19;129899;-32
2023/07/26 09:07:05;;;;;;;62.90;3.87;;;;;;;25.77;54.91;98940.47;7313668;19;129210;-38
2023/07/26 09:09:35;;;;;;;54.10;2.83;;;;;;;25.80;54.66;98944.56;7312364;19;130011;-37
2023/07/26 09:12:01;;;;;;;25.55;1.42;;;;;;;25.80;55.11;98945.38;7314951;19;129351;-37
2023/07/26 09:14:28;;;;;;;90.00;5.10;;;;;;;25.83;55.19;98947.66;7310891;19;129190;-33
2023/07/26 09:16:56;;;;;;;30.80;1.77;;;;;;;25.84;55.29;98957.19;7314451;19;129182;-32
2023/07/26 09:19:34;;;;;;;68.20;3.85;;;;;;;25.86;54.98;98952.56;7311779;19;130285;-35
2023/07/26 09:22:02;;;;;;;40.72;2.20;;;;;;;25.83;55.03;98950.28;7313648;19;129367;-36
2023/07/26 09:24:33;;;;;;;49.97;2.83;;;;;;;25.77;55.41;98945.72;7310542;19;129473;-32
2023/07/26 09:27:09;;;;;;;28.80;1.77;;;;;;;25.86;55.18;98952.56;7312955;19;129536;-40
2023/07/26 09:29:35;;;;;;;60.33;3.42;;;;;;;25.54;51.78;98960.81;7312802;19;130355;-34
2023/07/26 09:32:01;;;;;;;42.95;2.30;;;;;;;25.25;50.90;98950.22;7314157;19;129357;-32
2023/07/26 09:34:29;;;;;;;81.85;4.70;;;;;;;25.19;51.07;98950.91;7310916;19;129214;-37
2023/07/26 09:36:56;;;;;;;40.60;2.38;;;;;;;25.27;53.89;98948.22;7314215;19;128995;-33
2023/07/26 09:39:25;;;;;;;27.30;1.48;;;;;;;25.55;54.66;98941.41;7313842;19;129300;-32
2023/07/26 09:42:08;;;;;;;74.03;4.18;;;;;;;25.65;54.94;98932.22;7312954;19;130450;-33
2023/07/26 09:44:35;;;;;;;47.83;2.58;;;;;;;25.69;55.28;98937.94;7313818;19;129434;-34
2023/07/26 09:47:01;;;;;;;66.35;3.88;;;;;;;25.77;55.00;98940.47;7312556;19;129186;-38
2023/07/26 09:49:27;;;;;;;26.10;1.53;;;;;;;25.79;54.85;98938.47;7312219;19;130211;-35
2023/07/26 09:51:55;;;;;;;49.63;2.90;;;;;;;25.80;55.04;98937.47;7311871;19;129402;-43
2023/07/26 09:54:21;;;;;;;46.35;2.53;;;;;;;25.83;55.13;98936.31;7310032;19;129676;-34
2023/07/26 09:56:47;;;;;;;29.50;1.58;;;;;;;25.84;55.12;98933.47;7313186;19;130471;-42
2023/07/26 09:59:13;;;;;;;26.87;1.70;;;;;;;25.83;55.45;98931.03;7311733;19;129254;-34
2023/07/26 10:01:41;;;;;;;31.08;1.70;;;;;;;25.84;55.66;98933.47;7312529;19;129181;-36
2023/07/26 10:04:12;;;;;;;79.20;4.65;;;;;;;25.82;55.79;98926.78;7309454;19;129667;-39
2023/07/26 10:06:39;;;;;;;33.72;1.88;;;;;;;25.82;55.22;98938.09;7313613;19;130473;-34
2023/07/26 10:09:05;;;;;;;51.35;2.95;;;;;;;25.62;52.55;98934.38;7311840;19;129763;-36
2023/07/26 10:11:31;;;;;;;23.33;1.33;;;;;;;25.19;51.59;98908.81;7313252;19;129253;-29
2023/07/26 10:13:58;;;;;;;33.50;1.97;;;;;;;25.17;51.17;98931.88;7308711;19;129341;-34
2023/07/26 10:16:24;;;;;;;60.90;3.53;;;;;;;25.20;53.08;98942.03;7312353;19;131873;-34
2023/07/26 10:18:51;;;;;;;;;;;;;;;25.58;54.98;98946.28;7311550;19;129148;-32
2023/07/26 10:21:18;;;;;;;63.30;3.67;;;;;;;25.62;54.21;98939.66;7311424;19;129469;-30
2023/07/26 10:23:46;;;;;;;41.80;2.33;;;;;;;25.69;54.80;98937.94;7310116;19;130419;-32
2023/07/26 10:26:12;;;;;;;41.95;2.38;;;;;;;25.74;54.73;98935.56;7312265;19;129189;-36
2023/07/26 10:28:38;;;;;;;32.22;1.90;;;;;;;25.77;55.31;98932.56;7311504;19;129259;-35
2023/07/26 10:31:04;;;;;;;24.50;1.37;;;;;;;25.81;54.73;98931.22;7307621;19;131052;-32
2023/07/26 10:33:29;;;;;;;63.40;3.70;;;;;;;25.81;55.17;98920.69;7309798;19;130375;-32
2023/07/26 10:35:55;;;;;;;33.17;1.77;;;;;;;25.81;55.12;98918.06;7311971;19;128967;-35
2023/07/26 10:38:21;;;;;;;47.53;2.83;;;;;;;25.83;54.86;98912.59;7310501;19;129996;-42
2023/07/26 10:40:47;;;;;;;20.70;1.33;;;;;;;25.82;55.65;98914.41;7311574;19;131423;-34
2023/07/26 10:43:21;;;;;;;40.73;2.23;;;;;;;25.85;55.66;98915.88;7309749;19;129285;-39
2023/07/26 10:45:48;;;;;;;41.65;2.25;;;;;;;25.82;55.37;98919.66;7311329;19;128964;-37
2023/07/26 10:48:28;;;;;;;39.00;2.22;;;;;;;25.34;51.78;98912.28;7309689;19;129574;-40
2023/07/26 10:50:57;;;;;;;23.13;1.38;;;;;;;25.20;50.83;98913.91;7309766;19;130498;-31
2023/07/26 10:53:37;;;;;;;17.25;1.10;;;;;;;25.16;51.32;98914.44;7310149;19;129040;-33
2023/07/26 10:56:17;;;;;;;24.35;1.35;;;;;;;25.41;54.86;98910.59;7311137;19;129081;-41
2023/07/26 10:58:52;;;;;;;57.60;3.38;;;;;;;25.57;55.27;98911.25;7308508;19;129104;-38
2023/07/26 11:01:44;;;;;;;49.70;2.65;;;;;;;25.65;54.98;98899.81;7311265;19;130499;-41
2023/07/26 11:04:11;;;;;;;44.80;2.40;;;;;;;25.71;54.95;98912.25;7307851;19;129893;-31
2023/07/26 11:06:59;;;;;;;54.33;3.10;;;;;;;25.72;55.66;98905.97;7310279;19;128865;-36
2023/07/26 11:09:27;;;;;;;28.23;1.67;;;;;;;25.77;55.22;98914.13;7310220;19;129141;-37
2023/07/26 11:11:57;;;;;;;46.40;2.80;;;;;;;25.79;55.45;98927.13;7310370;19;130548;-32
2023/07/26 11:14:25;;;;;;;32.95;1.90;;;;;;;25.76;54.60;98911.69;7307565;19;129244;-34